M/T Arcadia — SY7849 — position and weather

sailwx.info

Track history (hours):
 
Tides and Currents Weather Stations Pressure Air Temp Water Temp Dewpoint Dewpoint Depression Visibility Wind Speed Wind Dir Waves Ship Positions

M/T Arcadia

Last reported at 2017-Jun-25 09:54 UTC. Time now 2017-Jun-26 14:07 UTC.
Position N 37°31' E 023°36'.

Length 76 m; draft 4.7 m.

Type: Tanker. MMSI: 240560000.

Date/timePositionNaut miles runAvg speedWind from/ knotsBaromVisibWave heightAir tempDewpointWater temp
2017-Jun-25 09:54N 37°31' E 023°36'3 9.0
2017-Jun-25 09:31N 37°34' E 023°35'4 8.0
2017-Jun-25 09:01N 37°37' E 023°32'4 8.9
2017-Jun-25 08:31N 37°39' E 023°27'4 8.7
2017-Jun-25 08:00N 37°40' E 023°21'4 7.4
2017-Jun-25 07:31N 37°42' E 023°17'4 8.9
2017-Jun-25 07:01N 37°46' E 023°15'4 8.8
2017-Jun-25 06:30N 37°49' E 023°12'5 9.1
2017-Jun-25 06:00N 37°53' E 023°08'3 4.4
2017-Jun-25 05:17N 37°55' E 023°05'0 0.0
2017-Jun-25 04:55N 37°55' E 023°05'0 0.0
2017-Jun-25 04:18N 37°55' E 023°05'0 0.0
2017-Jun-25 03:55N 37°55' E 023°05'0 0.0
2017-Jun-24 17:43N 37°55' E 023°05'0 0.0
2017-Jun-24 17:25N 37°55' E 023°05'0 0.0
2017-Jun-24 16:43N 37°55' E 023°05'0 0.0
2017-Jun-24 10:37N 37°55' E 023°05'0 0.0
2017-Jun-24 10:30N 37°55' E 023°05'1 1.4
2017-Jun-24 09:58N 37°55' E 023°06'0 0.1
2017-Jun-24 09:23N 37°55' E 023°06'0 0.7
2017-Jun-24 09:00N 37°55' E 023°06'2 3.9
2017-Jun-24 08:30N 37°53' E 023°08'4 8.3
2017-Jun-24 08:00N 37°50' E 023°12'4 8.6
2017-Jun-24 07:30N 37°47' E 023°15'5 9.3
2017-Jun-24 07:00N 37°42' E 023°17'4 7.7
2017-Jun-24 06:30N 37°40' E 023°21'5 9.7
2017-Jun-24 06:00N 37°38' E 023°27'5 9.3
2017-Jun-24 05:30N 37°37' E 023°32'4 8.6
2017-Jun-24 05:00N 37°33' E 023°35'5 9.5
2017-Jun-24 04:30N 37°29' E 023°37'510.0
2017-Jun-24 04:00N 37°24' E 023°38'510.1
2017-Jun-24 03:30N 37°19' E 023°40'5 9.9
2017-Jun-24 03:00N 37°14' E 023°41'5 9.8
2017-Jun-24 02:30N 37°09' E 023°43'8 9.8
2017-Jun-24 01:44N 37°02' E 023°45'2 9.7
2017-Jun-24 01:29N 36°59' E 023°45'5 9.7
2017-Jun-24 01:00N 36°55' E 023°46'66 9.7
2017-Jun-23 18:12N 35°49' E 023°60'2 9.1
2017-Jun-23 18:00N 35°48' E 024°00'5 9.0
2017-Jun-23 17:30N 35°43' E 024°01'4 8.8
2017-Jun-23 17:00N 35°39' E 024°02'4 8.9
2017-Jun-23 16:30N 35°34' E 024°03'108 3.1
2017-Jun-22 05:24N 37°21' E 023°38'5 8.3
2017-Jun-22 04:50N 37°26' E 023°37'3 8.7
2017-Jun-22 04:30N 37°28' E 023°36'4 8.8
2017-Jun-22 04:01N 37°33' E 023°35'4 8.2
2017-Jun-22 03:30N 37°37' E 023°33'4 9.0
2017-Jun-22 03:01N 37°38' E 023°28'4 9.0
2017-Jun-22 02:31N 37°40' E 023°23'4 8.5
2017-Jun-22 02:01N 37°41' E 023°17'4 8.7
2017-Jun-22 01:31N 37°45' E 023°16'4 8.7
2017-Jun-22 01:00N 37°49' E 023°13'4 8.6
2017-Jun-22 00:31N 37°52' E 023°10'4 0.1
2017-Jun-20 09:08N 37°55' E 023°05'0 2.4
2017-Jun-20 08:59N 37°55' E 023°06'4 8.6
2017-Jun-20 08:29N 37°52' E 023°10'5 9.6
2017-Jun-20 08:00N 37°48' E 023°13'5 9.7
2017-Jun-20 07:30N 37°44' E 023°17'5 8.5
2017-Jun-20 06:54N 37°40' E 023°20'4 9.6
2017-Jun-20 06:30N 37°39' E 023°25'5 9.2
2017-Jun-20 05:55N 37°37' E 023°31'4 9.3
2017-Jun-20 05:27N 37°34' E 023°34'3 0.1
2017-Jun-18 04:41N 37°31' E 023°34'2 9.2
2017-Jun-18 04:30N 37°32' E 023°32'4 9.2
2017-Jun-18 04:00N 37°35' E 023°28'5 9.2
2017-Jun-18 03:30N 37°39' E 023°25'4 8.9
2017-Jun-18 03:00N 37°40' E 023°19'4 7.8
2017-Jun-18 02:30N 37°43' E 023°17'4 8.7
2017-Jun-18 02:00N 37°47' E 023°14'5 8.8
2017-Jun-18 01:30N 37°51' E 023°11'4 8.9
2017-Jun-18 01:00N 37°54' E 023°07'2 0.1
2017-Jun-17 10:03N 37°55' E 023°05'1 0.0
2017-Jun-16 14:36N 37°55' E 023°06'0 0.1
2017-Jun-16 13:49N 37°55' E 023°06'0 0.0
2017-Jun-16 13:16N 37°55' E 023°06'0 0.1
2017-Jun-16 12:53N 37°55' E 023°06'2 5.1
2017-Jun-16 12:24N 37°53' E 023°08'4 9.6
2017-Jun-16 12:00N 37°50' E 023°11'5 9.7
2017-Jun-16 11:30N 37°46' E 023°15'5 9.8
2017-Jun-16 11:00N 37°42' E 023°17'4 8.2
2017-Jun-16 10:30N 37°40' E 023°22'5 9.7
2017-Jun-16 10:00N 37°38' E 023°28'5 9.8
2017-Jun-16 09:30N 37°37' E 023°34'5 9.4
2017-Jun-16 09:00N 37°32' E 023°35'5 9.9
2017-Jun-16 08:30N 37°27' E 023°36'5 9.8
2017-Jun-16 08:00N 37°22' E 023°37'  
Track history (hours):
 
Tides and Currents Weather Stations Pressure Air Temp Water Temp Dewpoint Dewpoint Depression Visibility Wind Speed Wind Dir Waves Ship Positions

M/T Arcadia

Last reported at 2017-Jun-25 09:54 UTC. Time now 2017-Jun-26 14:07 UTC.
Position N 37°31' E 023°36'.

Length 76 m; draft 4.7 m.

Type: Tanker. MMSI: 240560000.

Date/timePositionNaut miles runAvg speedWind from/ knotsBaromVisibWave heightAir tempDewpointWater temp
2017-Jun-25 09:54N 37°31' E 023°36'3 9.0
2017-Jun-25 09:31N 37°34' E 023°35'4 8.0
2017-Jun-25 09:01N 37°37' E 023°32'4 8.9
2017-Jun-25 08:31N 37°39' E 023°27'4 8.7
2017-Jun-25 08:00N 37°40' E 023°21'4 7.4
2017-Jun-25 07:31N 37°42' E 023°17'4 8.9
2017-Jun-25 07:01N 37°46' E 023°15'4 8.8
2017-Jun-25 06:30N 37°49' E 023°12'5 9.1
2017-Jun-25 06:00N 37°53' E 023°08'3 4.4
2017-Jun-25 05:17N 37°55' E 023°05'0 0.0
2017-Jun-25 04:55N 37°55' E 023°05'0 0.0
2017-Jun-25 04:18N 37°55' E 023°05'0 0.0
2017-Jun-25 03:55N 37°55' E 023°05'0 0.0
2017-Jun-24 17:43N 37°55' E 023°05'0 0.0
2017-Jun-24 17:25N 37°55' E 023°05'0 0.0
2017-Jun-24 16:43N 37°55' E 023°05'0 0.0
2017-Jun-24 10:37N 37°55' E 023°05'0 0.0
2017-Jun-24 10:30N 37°55' E 023°05'1 1.4
2017-Jun-24 09:58N 37°55' E 023°06'0 0.1
2017-Jun-24 09:23N 37°55' E 023°06'0 0.7
2017-Jun-24 09:00N 37°55' E 023°06'2 3.9
2017-Jun-24 08:30N 37°53' E 023°08'4 8.3
2017-Jun-24 08:00N 37°50' E 023°12'4 8.6
2017-Jun-24 07:30N 37°47' E 023°15'5 9.3
2017-Jun-24 07:00N 37°42' E 023°17'4 7.7
2017-Jun-24 06:30N 37°40' E 023°21'5 9.7
2017-Jun-24 06:00N 37°38' E 023°27'5 9.3
2017-Jun-24 05:30N 37°37' E 023°32'4 8.6
2017-Jun-24 05:00N 37°33' E 023°35'5 9.5
2017-Jun-24 04:30N 37°29' E 023°37'510.0
2017-Jun-24 04:00N 37°24' E 023°38'510.1
2017-Jun-24 03:30N 37°19' E 023°40'5 9.9
2017-Jun-24 03:00N 37°14' E 023°41'5 9.8
2017-Jun-24 02:30N 37°09' E 023°43'8 9.8
2017-Jun-24 01:44N 37°02' E 023°45'2 9.7
2017-Jun-24 01:29N 36°59' E 023°45'5 9.7
2017-Jun-24 01:00N 36°55' E 023°46'66 9.7
2017-Jun-23 18:12N 35°49' E 023°60'2 9.1
2017-Jun-23 18:00N 35°48' E 024°00'5 9.0
2017-Jun-23 17:30N 35°43' E 024°01'4 8.8
2017-Jun-23 17:00N 35°39' E 024°02'4 8.9
2017-Jun-23 16:30N 35°34' E 024°03'108 3.1
2017-Jun-22 05:24N 37°21' E 023°38'5 8.3
2017-Jun-22 04:50N 37°26' E 023°37'3 8.7
2017-Jun-22 04:30N 37°28' E 023°36'4 8.8
2017-Jun-22 04:01N 37°33' E 023°35'4 8.2
2017-Jun-22 03:30N 37°37' E 023°33'4 9.0
2017-Jun-22 03:01N 37°38' E 023°28'4 9.0
2017-Jun-22 02:31N 37°40' E 023°23'4 8.5
2017-Jun-22 02:01N 37°41' E 023°17'4 8.7
2017-Jun-22 01:31N 37°45' E 023°16'4 8.7
2017-Jun-22 01:00N 37°49' E 023°13'4 8.6
2017-Jun-22 00:31N 37°52' E 023°10'4 0.1
2017-Jun-20 09:08N 37°55' E 023°05'0 2.4
2017-Jun-20 08:59N 37°55' E 023°06'4 8.6
2017-Jun-20 08:29N 37°52' E 023°10'5 9.6
2017-Jun-20 08:00N 37°48' E 023°13'5 9.7
2017-Jun-20 07:30N 37°44' E 023°17'5 8.5
2017-Jun-20 06:54N 37°40' E 023°20'4 9.6
2017-Jun-20 06:30N 37°39' E 023°25'5 9.2
2017-Jun-20 05:55N 37°37' E 023°31'4 9.3
2017-Jun-20 05:27N 37°34' E 023°34'3 0.1
2017-Jun-18 04:41N 37°31' E 023°34'2 9.2
2017-Jun-18 04:30N 37°32' E 023°32'4 9.2
2017-Jun-18 04:00N 37°35' E 023°28'5 9.2
2017-Jun-18 03:30N 37°39' E 023°25'4 8.9
2017-Jun-18 03:00N 37°40' E 023°19'4 7.8
2017-Jun-18 02:30N 37°43' E 023°17'4 8.7
2017-Jun-18 02:00N 37°47' E 023°14'5 8.8
2017-Jun-18 01:30N 37°51' E 023°11'4 8.9
2017-Jun-18 01:00N 37°54' E 023°07'2 0.1
2017-Jun-17 10:03N 37°55' E 023°05'1 0.0
2017-Jun-16 14:36N 37°55' E 023°06'0 0.1
2017-Jun-16 13:49N 37°55' E 023°06'0 0.0
2017-Jun-16 13:16N 37°55' E 023°06'0 0.1
2017-Jun-16 12:53N 37°55' E 023°06'2 5.1
2017-Jun-16 12:24N 37°53' E 023°08'4 9.6
2017-Jun-16 12:00N 37°50' E 023°11'5 9.7
2017-Jun-16 11:30N 37°46' E 023°15'5 9.8
2017-Jun-16 11:00N 37°42' E 023°17'4 8.2
2017-Jun-16 10:30N 37°40' E 023°22'5 9.7
2017-Jun-16 10:00N 37°38' E 023°28'5 9.8
2017-Jun-16 09:30N 37°37' E 023°34'5 9.4
2017-Jun-16 09:00N 37°32' E 023°35'5 9.9
2017-Jun-16 08:30N 37°27' E 023°36'5 9.8
2017-Jun-16 08:00N 37°22' E 023°37'  

Dump ship's entire track history